sensor_id;sensor_type;location;lat;lon;timestamp;pressure;altitude;pressure_sealevel;temperature;humidity
29815;BME280;16708;50.426;7.664;2023-07-02T00:00:42;980.80;;;14.48;100.00
29815;BME280;16708;50.426;7.664;2023-07-02T00:05:36;980.72;;;14.40;100.00
29815;BME280;16708;50.426;7.664;2023-07-02T00:10:30;980.87;;;14.30;100.00
29815;BME280;16708;50.426;7.664;2023-07-02T00:15:25;980.80;;;14.24;100.00
29815;BME280;16708;50.426;7.664;2023-07-02T00:20:19;980.76;;;14.16;100.00
29815;BME280;16708;50.426;7.664;2023-07-02T00:25:13;980.79;;;14.07;100.00
29815;BME280;16708;50.426;7.664;2023-07-02T00:30:07;980.79;;;14.10;100.00
29815;BME280;16708;50.426;7.664;2023-07-02T00:35:02;980.85;;;14.09;100.00
29815;BME280;16708;50.426;7.664;2023-07-02T00:39:56;980.89;;;14.19;100.00
29815;BME280;16708;50.426;7.664;2023-07-02T00:44:50;980.85;;;14.12;100.00
29815;BME280;16708;50.426;7.664;2023-07-02T00:49:44;980.81;;;14.06;100.00
29815;BME280;16708;50.426;7.664;2023-07-02T00:54:38;980.71;;;14.02;100.00
29815;BME280;16708;50.426;7.664;2023-07-02T00:59:33;980.71;;;14.02;100.00
29815;BME280;16708;50.426;7.664;2023-07-02T01:04:27;980.72;;;14.04;100.00
29815;BME280;16708;50.426;7.664;2023-07-02T01:09:22;980.69;;;14.05;100.00
29815;BME280;16708;50.426;7.664;2023-07-02T01:14:16;980.66;;;14.02;100.00
29815;BME280;16708;50.426;7.664;2023-07-02T01:19:10;980.74;;;13.95;100.00
29815;BME280;16708;50.426;7.664;2023-07-02T01:24:05;980.68;;;13.94;100.00
29815;BME280;16708;50.426;7.664;2023-07-02T01:28:59;980.71;;;13.91;100.00
29815;BME280;16708;50.426;7.664;2023-07-02T01:33:53;980.74;;;13.89;100.00
29815;BME280;16708;50.426;7.664;2023-07-02T01:38:48;980.87;;;13.78;100.00
29815;BME280;16708;50.426;7.664;2023-07-02T01:43:42;980.78;;;13.73;100.00
29815;BME280;16708;50.426;7.664;2023-07-02T01:48:37;980.83;;;13.71;100.00
29815;BME280;16708;50.426;7.664;2023-07-02T01:53:30;980.81;;;13.71;100.00
29815;BME280;16708;50.426;7.664;2023-07-02T01:58:21;980.73;;;13.69;100.00
29815;BME280;16708;50.426;7.664;2023-07-02T02:03:15;980.84;;;13.60;100.00
29815;BME280;16708;50.426;7.664;2023-07-02T02:08:08;980.90;;;13.58;100.00
29815;BME280;16708;50.426;7.664;2023-07-02T02:13:03;980.83;;;13.50;100.00
29815;BME280;16708;50.426;7.664;2023-07-02T02:17:55;980.92;;;13.44;100.00
29815;BME280;16708;50.426;7.664;2023-07-02T02:22:50;980.87;;;13.41;100.00
29815;BME280;16708;50.426;7.664;2023-07-02T02:27:43;980.84;;;13.33;100.00
29815;BME280;16708;50.426;7.664;2023-07-02T02:32:36;980.79;;;13.29;100.00
29815;BME280;16708;50.426;7.664;2023-07-02T02:37:31;980.86;;;13.26;100.00
29815;BME280;16708;50.426;7.664;2023-07-02T02:42:25;980.78;;;13.21;100.00
29815;BME280;16708;50.426;7.664;2023-07-02T02:47:20;980.80;;;13.15;100.00
29815;BME280;16708;50.426;7.664;2023-07-02T02:52:14;980.77;;;13.07;100.00
29815;BME280;16708;50.426;7.664;2023-07-02T02:57:09;980.84;;;13.04;100.00
29815;BME280;16708;50.426;7.664;2023-07-02T03:02:03;980.80;;;12.98;100.00
29815;BME280;16708;50.426;7.664;2023-07-02T03:06:58;980.76;;;12.95;100.00
29815;BME280;16708;50.426;7.664;2023-07-02T03:11:52;980.79;;;12.93;100.00
29815;BME280;16708;50.426;7.664;2023-07-02T03:16:46;980.73;;;12.91;100.00
29815;BME280;16708;50.426;7.664;2023-07-02T03:21:40;980.84;;;12.92;100.00
29815;BME280;16708;50.426;7.664;2023-07-02T03:26:35;980.92;;;12.90;100.00
29815;BME280;16708;50.426;7.664;2023-07-02T03:31:28;980.88;;;12.96;100.00
29815;BME280;16708;50.426;7.664;2023-07-02T03:36:23;980.89;;;12.94;100.00
29815;BME280;16708;50.426;7.664;2023-07-02T03:41:17;980.91;;;12.94;100.00
29815;BME280;16708;50.426;7.664;2023-07-02T03:46:12;980.87;;;12.93;100.00
29815;BME280;16708;50.426;7.664;2023-07-02T03:51:06;980.89;;;12.91;100.00
29815;BME280;16708;50.426;7.664;2023-07-02T03:56:01;980.97;;;12.93;100.00
29815;BME280;16708;50.426;7.664;2023-07-02T04:00:55;980.86;;;12.99;100.00
29815;BME280;16708;50.426;7.664;2023-07-02T04:05:50;981.05;;;13.01;100.00
29815;BME280;16708;50.426;7.664;2023-07-02T04:10:44;981.08;;;13.06;100.00
29815;BME280;16708;50.426;7.664;2023-07-02T04:15:37;981.19;;;13.17;100.00
29815;BME280;16708;50.426;7.664;2023-07-02T04:20:30;981.30;;;13.19;100.00
29815;BME280;16708;50.426;7.664;2023-07-02T04:25:24;981.31;;;13.27;100.00
29815;BME280;16708;50.426;7.664;2023-07-02T04:30:19;981.34;;;13.30;100.00
29815;BME280;16708;50.426;7.664;2023-07-02T04:35:13;981.43;;;13.37;100.00
29815;BME280;16708;50.426;7.664;2023-07-02T04:40:08;981.46;;;13.42;100.00
29815;BME280;16708;50.426;7.664;2023-07-02T04:45:02;981.45;;;13.45;100.00
29815;BME280;16708;50.426;7.664;2023-07-02T04:49:56;981.46;;;13.42;100.00
29815;BME280;16708;50.426;7.664;2023-07-02T04:54:51;981.41;;;13.49;100.00
29815;BME280;16708;50.426;7.664;2023-07-02T04:59:45;981.52;;;13.59;100.00
29815;BME280;16708;50.426;7.664;2023-07-02T05:04:39;981.63;;;13.83;100.00
29815;BME280;16708;50.426;7.664;2023-07-02T05:09:33;981.61;;;14.07;100.00
29815;BME280;16708;50.426;7.664;2023-07-02T05:14:27;981.59;;;14.14;100.00
29815;BME280;16708;50.426;7.664;2023-07-02T05:19:22;981.64;;;14.26;100.00
29815;BME280;16708;50.426;7.664;2023-07-02T05:24:16;981.66;;;14.25;100.00
29815;BME280;16708;50.426;7.664;2023-07-02T05:29:10;981.85;;;14.29;100.00
29815;BME280;16708;50.426;7.664;2023-07-02T05:34:05;981.80;;;14.75;100.00
29815;BME280;16708;50.426;7.664;2023-07-02T05:38:59;981.93;;;14.77;100.00
29815;BME280;16708;50.426;7.664;2023-07-02T05:43:52;981.88;;;14.77;100.00
29815;BME280;16708;50.426;7.664;2023-07-02T05:48:46;981.99;;;14.91;100.00
29815;BME280;16708;50.426;7.664;2023-07-02T05:53:40;982.07;;;14.95;100.00
29815;BME280;16708;50.426;7.664;2023-07-02T05:58:34;982.09;;;14.79;100.00
29815;BME280;16708;50.426;7.664;2023-07-02T06:03:29;981.99;;;14.85;100.00
29815;BME280;16708;50.426;7.664;2023-07-02T06:08:23;981.95;;;14.92;100.00
29815;BME280;16708;50.426;7.664;2023-07-02T06:13:16;982.02;;;14.65;100.00
29815;BME280;16708;50.426;7.664;2023-07-02T06:18:11;982.02;;;14.79;100.00
29815;BME280;16708;50.426;7.664;2023-07-02T06:23:05;982.10;;;14.90;100.00
29815;BME280;16708;50.426;7.664;2023-07-02T06:28:00;982.05;;;15.36;100.00
29815;BME280;16708;50.426;7.664;2023-07-02T06:32:54;982.19;;;15.60;100.00
29815;BME280;16708;50.426;7.664;2023-07-02T06:37:48;982.16;;;15.60;100.00
29815;BME280;16708;50.426;7.664;2023-07-02T06:42:43;982.29;;;15.86;100.00
29815;BME280;16708;50.426;7.664;2023-07-02T06:47:38;982.36;;;15.71;100.00
29815;BME280;16708;50.426;7.664;2023-07-02T06:52:32;982.38;;;15.72;100.00
29815;BME280;16708;50.426;7.664;2023-07-02T06:57:25;982.45;;;16.00;100.00
29815;BME280;16708;50.426;7.664;2023-07-02T07:02:19;982.52;;;16.37;100.00
29815;BME280;16708;50.426;7.664;2023-07-02T07:07:13;982.62;;;16.81;100.00
29815;BME280;16708;50.426;7.664;2023-07-02T07:12:07;982.50;;;16.93;100.00
29815;BME280;16708;50.426;7.664;2023-07-02T07:17:02;982.53;;;17.24;100.00
29815;BME280;16708;50.426;7.664;2023-07-02T07:21:57;982.52;;;17.35;100.00
29815;BME280;16708;50.426;7.664;2023-07-02T07:26:51;982.50;;;17.18;100.00
29815;BME280;16708;50.426;7.664;2023-07-02T07:31:45;982.42;;;17.40;100.00
29815;BME280;16708;50.426;7.664;2023-07-02T07:36:40;982.49;;;17.79;100.00
29815;BME280;16708;50.426;7.664;2023-07-02T07:41:34;982.49;;;17.78;100.00
29815;BME280;16708;50.426;7.664;2023-07-02T07:46:29;982.54;;;17.54;100.00
29815;BME280;16708;50.426;7.664;2023-07-02T07:51:23;982.53;;;17.78;100.00
29815;BME280;16708;50.426;7.664;2023-07-02T07:56:18;982.51;;;17.35;100.00
29815;BME280;16708;50.426;7.664;2023-07-02T08:01:12;982.39;;;17.69;100.00
29815;BME280;16708;50.426;7.664;2023-07-02T08:06:07;982.45;;;18.29;100.00
29815;BME280;16708;50.426;7.664;2023-07-02T08:11:02;982.45;;;17.82;100.00
29815;BME280;16708;50.426;7.664;2023-07-02T08:15:56;982.52;;;17.93;100.00
29815;BME280;16708;50.426;7.664;2023-07-02T08:20:51;982.56;;;18.92;100.00
29815;BME280;16708;50.426;7.664;2023-07-02T08:25:45;982.58;;;18.97;100.00
29815;BME280;16708;50.426;7.664;2023-07-02T08:30:40;982.57;;;18.00;100.00
29815;BME280;16708;50.426;7.664;2023-07-02T08:35:34;982.67;;;18.09;100.00
29815;BME280;16708;50.426;7.664;2023-07-02T08:40:29;982.69;;;18.53;100.00
29815;BME280;16708;50.426;7.664;2023-07-02T08:45:23;982.72;;;19.78;100.00
29815;BME280;16708;50.426;7.664;2023-07-02T08:50:18;982.62;;;19.78;100.00
29815;BME280;16708;50.426;7.664;2023-07-02T09:00:08;982.88;;;19.19;100.00
29815;BME280;16708;50.426;7.664;2023-07-02T09:05:02;982.89;;;19.15;100.00
29815;BME280;16708;50.426;7.664;2023-07-02T09:09:56;982.84;;;19.25;100.00
29815;BME280;16708;50.426;7.664;2023-07-02T09:14:51;982.84;;;20.03;100.00
29815;BME280;16708;50.426;7.664;2023-07-02T09:19:45;983.01;;;20.18;100.00
29815;BME280;16708;50.426;7.664;2023-07-02T09:24:40;982.93;;;20.13;100.00
29815;BME280;16708;50.426;7.664;2023-07-02T09:34:29;982.94;;;19.75;100.00
29815;BME280;16708;50.426;7.664;2023-07-02T09:39:23;982.83;;;20.72;100.00
29815;BME280;16708;50.426;7.664;2023-07-02T09:44:18;982.88;;;19.20;100.00
29815;BME280;16708;50.426;7.664;2023-07-02T09:49:12;982.87;;;18.90;100.00
29815;BME280;16708;50.426;7.664;2023-07-02T09:54:06;982.81;;;19.49;100.00
29815;BME280;16708;50.426;7.664;2023-07-02T09:59:00;982.86;;;19.02;100.00
29815;BME280;16708;50.426;7.664;2023-07-02T10:03:54;982.95;;;19.01;100.00
29815;BME280;16708;50.426;7.664;2023-07-02T10:08:49;982.93;;;19.26;100.00
29815;BME280;16708;50.426;7.664;2023-07-02T10:13:43;982.95;;;20.03;100.00
29815;BME280;16708;50.426;7.664;2023-07-02T10:18:38;982.90;;;22.72;78.25
29815;BME280;16708;50.426;7.664;2023-07-02T10:23:35;983.03;;;21.76;91.35
29815;BME280;16708;50.426;7.664;2023-07-02T10:28:30;983.02;;;21.15;90.46
29815;BME280;16708;50.426;7.664;2023-07-02T10:38:19;982.94;;;21.87;88.84
29815;BME280;16708;50.426;7.664;2023-07-02T10:43:13;983.05;;;21.08;88.92
29815;BME280;16708;50.426;7.664;2023-07-02T10:48:07;983.10;;;22.05;80.70
29815;BME280;16708;50.426;7.664;2023-07-02T10:53:01;983.02;;;22.60;90.21
29815;BME280;16708;50.426;7.664;2023-07-02T10:57:57;983.00;;;22.28;75.39
29815;BME280;16708;50.426;7.664;2023-07-02T11:02:51;983.00;;;21.48;81.99
29815;BME280;16708;50.426;7.664;2023-07-02T11:07:43;983.04;;;22.47;82.00
29815;BME280;16708;50.426;7.664;2023-07-02T11:17:31;983.10;;;21.28;87.95
29815;BME280;16708;50.426;7.664;2023-07-02T11:27:19;983.03;;;22.28;71.95
29815;BME280;16708;50.426;7.664;2023-07-02T11:32:12;983.01;;;21.08;73.37
29815;BME280;16708;50.426;7.664;2023-07-02T11:37:06;982.99;;;22.09;71.83
29815;BME280;16708;50.426;7.664;2023-07-02T11:42:01;983.04;;;21.52;65.53
29815;BME280;16708;50.426;7.664;2023-07-02T11:46:55;983.01;;;22.16;71.35
29815;BME280;16708;50.426;7.664;2023-07-02T11:51:49;983.19;;;21.04;79.73
29815;BME280;16708;50.426;7.664;2023-07-02T11:56:43;983.10;;;20.72;91.15
29815;BME280;16708;50.426;7.664;2023-07-02T12:01:37;983.22;;;19.76;99.10
29815;BME280;16708;50.426;7.664;2023-07-02T12:06:31;983.18;;;19.80;100.00
29815;BME280;16708;50.426;7.664;2023-07-02T12:11:25;983.32;;;20.37;100.00
29815;BME280;16708;50.426;7.664;2023-07-02T12:16:19;983.25;;;20.44;97.89
29815;BME280;16708;50.426;7.664;2023-07-02T12:21:13;983.23;;;20.51;96.57
29815;BME280;16708;50.426;7.664;2023-07-02T12:26:08;983.25;;;20.49;90.51
29815;BME280;16708;50.426;7.664;2023-07-02T12:30:56;983.17;;;21.71;79.00
29815;BME280;16708;50.426;7.664;2023-07-02T12:35:51;983.32;;;21.25;80.19
29815;BME280;16708;50.426;7.664;2023-07-02T12:40:44;983.36;;;20.49;91.42
29815;BME280;16708;50.426;7.664;2023-07-02T12:45:38;983.38;;;20.75;85.44
29815;BME280;16708;50.426;7.664;2023-07-02T12:50:31;983.34;;;20.45;94.34
29815;BME280;16708;50.426;7.664;2023-07-02T12:55:25;983.30;;;20.51;98.51
29815;BME280;16708;50.426;7.664;2023-07-02T13:00:20;983.40;;;24.74;64.73
29815;BME280;16708;50.426;7.664;2023-07-02T13:05:15;983.33;;;23.37;73.95
29815;BME280;16708;50.426;7.664;2023-07-02T13:10:10;983.29;;;22.34;74.82
29815;BME280;16708;50.426;7.664;2023-07-02T13:15:04;983.28;;;23.96;65.72
29815;BME280;16708;50.426;7.664;2023-07-02T13:19:58;983.27;;;21.40;77.05
29815;BME280;16708;50.426;7.664;2023-07-02T13:24:51;983.25;;;20.90;77.22
29815;BME280;16708;50.426;7.664;2023-07-02T13:29:45;983.28;;;21.26;79.04
29815;BME280;16708;50.426;7.664;2023-07-02T13:34:38;983.26;;;21.65;83.61
29815;BME280;16708;50.426;7.664;2023-07-02T13:39:32;983.30;;;23.17;77.21
29815;BME280;16708;50.426;7.664;2023-07-02T13:44:27;983.37;;;25.79;52.89
29815;BME280;16708;50.426;7.664;2023-07-02T13:49:23;983.27;;;24.89;46.18
29815;BME280;16708;50.426;7.664;2023-07-02T13:54:18;983.16;;;22.59;54.98
29815;BME280;16708;50.426;7.664;2023-07-02T13:59:12;983.22;;;22.74;59.49
29815;BME280;16708;50.426;7.664;2023-07-02T14:04:06;983.26;;;22.60;65.78
29815;BME280;16708;50.426;7.664;2023-07-02T14:09:01;983.29;;;23.87;48.79
29815;BME280;16708;50.426;7.664;2023-07-02T14:13:56;983.25;;;27.07;41.05
29815;BME280;16708;50.426;7.664;2023-07-02T14:18:51;983.36;;;25.56;44.68
29815;BME280;16708;50.426;7.664;2023-07-02T14:23:46;983.21;;;22.82;72.18
29815;BME280;16708;50.426;7.664;2023-07-02T14:28:40;983.28;;;21.85;74.18
29815;BME280;16708;50.426;7.664;2023-07-02T14:33:33;983.20;;;21.81;80.15
29815;BME280;16708;50.426;7.664;2023-07-02T14:38:27;983.26;;;22.55;70.17
29815;BME280;16708;50.426;7.664;2023-07-02T14:43:21;983.39;;;24.69;58.45
29815;BME280;16708;50.426;7.664;2023-07-02T14:48:16;983.29;;;25.02;54.62
29815;BME280;16708;50.426;7.664;2023-07-02T14:53:11;983.18;;;23.49;63.12
29815;BME280;16708;50.426;7.664;2023-07-02T14:58:06;983.22;;;23.30;68.68
29815;BME280;16708;50.426;7.664;2023-07-02T15:03:00;983.17;;;22.63;63.91
29815;BME280;16708;50.426;7.664;2023-07-02T15:07:54;983.13;;;22.28;67.07
29815;BME280;16708;50.426;7.664;2023-07-02T15:12:47;983.18;;;22.49;67.80
29815;BME280;16708;50.426;7.664;2023-07-02T15:17:42;983.07;;;24.95;49.56
29815;BME280;16708;50.426;7.664;2023-07-02T15:22:38;983.02;;;27.08;39.15
29815;BME280;16708;50.426;7.664;2023-07-02T15:27:33;983.11;;;26.67;44.64
29815;BME280;16708;50.426;7.664;2023-07-02T15:32:29;983.08;;;28.77;37.21
29815;BME280;16708;50.426;7.664;2023-07-02T15:37:24;983.12;;;29.31;36.23
29815;BME280;16708;50.426;7.664;2023-07-02T15:42:19;982.98;;;25.99;40.77
29815;BME280;16708;50.426;7.664;2023-07-02T15:47:11;982.99;;;24.18;47.40
29815;BME280;16708;50.426;7.664;2023-07-02T15:52:04;983.05;;;23.54;52.84
29815;BME280;16708;50.426;7.664;2023-07-02T15:56:57;983.13;;;24.00;56.90
29815;BME280;16708;50.426;7.664;2023-07-02T16:01:51;983.07;;;24.76;48.52
29815;BME280;16708;50.426;7.664;2023-07-02T16:06:45;982.98;;;23.05;59.96
29815;BME280;16708;50.426;7.664;2023-07-02T16:11:39;983.06;;;22.71;65.65
29815;BME280;16708;50.426;7.664;2023-07-02T16:16:33;983.09;;;23.05;66.12
29815;BME280;16708;50.426;7.664;2023-07-02T16:21:28;983.05;;;22.87;60.64
29815;BME280;16708;50.426;7.664;2023-07-02T16:26:22;983.02;;;26.25;45.30
29815;BME280;16708;50.426;7.664;2023-07-02T16:31:17;983.09;;;28.58;36.96
29815;BME280;16708;50.426;7.664;2023-07-02T16:36:13;983.01;;;26.11;43.61
29815;BME280;16708;50.426;7.664;2023-07-02T16:41:07;982.93;;;24.27;51.72
29815;BME280;16708;50.426;7.664;2023-07-02T16:46:01;982.92;;;23.31;61.36
29815;BME280;16708;50.426;7.664;2023-07-02T16:50:55;982.91;;;25.09;52.91
29815;BME280;16708;50.426;7.664;2023-07-02T16:55:50;982.87;;;23.87;53.61
29815;BME280;16708;50.426;7.664;2023-07-02T17:00:43;982.83;;;23.01;56.74
29815;BME280;16708;50.426;7.664;2023-07-02T17:05:37;982.91;;;22.32;63.55
29815;BME280;16708;50.426;7.664;2023-07-02T17:10:31;982.79;;;22.38;62.88
29815;BME280;16708;50.426;7.664;2023-07-02T17:15:25;982.79;;;21.94;61.50
29815;BME280;16708;50.426;7.664;2023-07-02T17:20:19;982.85;;;22.59;57.87
29815;BME280;16708;50.426;7.664;2023-07-02T17:25:13;982.83;;;24.59;47.49
29815;BME280;16708;50.426;7.664;2023-07-02T17:30:08;982.73;;;22.44;56.93
29815;BME280;16708;50.426;7.664;2023-07-02T17:35:02;982.76;;;22.82;58.08
29815;BME280;16708;50.426;7.664;2023-07-02T17:39:57;982.72;;;22.03;60.16
29815;BME280;16708;50.426;7.664;2023-07-02T17:44:51;982.70;;;21.87;61.40
29815;BME280;16708;50.426;7.664;2023-07-02T17:49:44;982.76;;;21.59;65.08
29815;BME280;16708;50.426;7.664;2023-07-02T17:54:39;982.72;;;21.01;69.48
29815;BME280;16708;50.426;7.664;2023-07-02T17:59:33;982.78;;;21.15;72.45
29815;BME280;16708;50.426;7.664;2023-07-02T18:04:28;982.65;;;22.37;62.89
29815;BME280;16708;50.426;7.664;2023-07-02T18:09:22;982.67;;;21.44;71.78
29815;BME280;16708;50.426;7.664;2023-07-02T18:14:17;982.65;;;21.31;79.13
29815;BME280;16708;50.426;7.664;2023-07-02T18:19:11;982.68;;;21.08;76.65
29815;BME280;16708;50.426;7.664;2023-07-02T18:24:04;982.72;;;20.75;78.05
29815;BME280;16708;50.426;7.664;2023-07-02T18:28:58;982.66;;;20.64;79.86
29815;BME280;16708;50.426;7.664;2023-07-02T18:33:52;982.70;;;20.40;82.23
29815;BME280;16708;50.426;7.664;2023-07-02T18:38:46;982.67;;;20.36;83.18
29815;BME280;16708;50.426;7.664;2023-07-02T18:43:38;982.71;;;20.21;84.86
29815;BME280;16708;50.426;7.664;2023-07-02T18:48:32;982.76;;;20.09;83.79
29815;BME280;16708;50.426;7.664;2023-07-02T18:53:26;982.67;;;19.93;84.22
29815;BME280;16708;50.426;7.664;2023-07-02T18:58:20;982.72;;;19.84;84.36
29815;BME280;16708;50.426;7.664;2023-07-02T19:03:15;982.63;;;19.82;82.00
29815;BME280;16708;50.426;7.664;2023-07-02T19:08:09;982.61;;;19.71;83.77
29815;BME280;16708;50.426;7.664;2023-07-02T19:13:03;982.67;;;19.52;86.49
29815;BME280;16708;50.426;7.664;2023-07-02T19:17:58;982.63;;;19.54;89.00
29815;BME280;16708;50.426;7.664;2023-07-02T19:22:52;982.65;;;19.46;90.97
29815;BME280;16708;50.426;7.664;2023-07-02T19:27:46;982.68;;;19.40;92.61
29815;BME280;16708;50.426;7.664;2023-07-02T19:32:41;982.73;;;19.29;93.74
29815;BME280;16708;50.426;7.664;2023-07-02T19:37:35;982.68;;;19.33;92.45
29815;BME280;16708;50.426;7.664;2023-07-02T19:42:30;982.71;;;19.18;94.36
29815;BME280;16708;50.426;7.664;2023-07-02T19:47:24;982.77;;;19.14;92.46
29815;BME280;16708;50.426;7.664;2023-07-02T19:52:18;982.80;;;18.99;94.88
29815;BME280;16708;50.426;7.664;2023-07-02T19:57:12;982.88;;;18.93;95.63
29815;BME280;16708;50.426;7.664;2023-07-02T20:02:04;982.93;;;18.93;92.42
29815;BME280;16708;50.426;7.664;2023-07-02T20:06:59;982.96;;;18.92;92.44
29815;BME280;16708;50.426;7.664;2023-07-02T20:11:53;983.11;;;18.90;92.03
29815;BME280;16708;50.426;7.664;2023-07-02T20:16:47;983.03;;;18.86;94.26
29815;BME280;16708;50.426;7.664;2023-07-02T20:21:42;982.99;;;18.73;96.06
29815;BME280;16708;50.426;7.664;2023-07-02T20:26:36;982.94;;;18.58;97.31
29815;BME280;16708;50.426;7.664;2023-07-02T20:31:29;983.00;;;18.47;97.04
29815;BME280;16708;50.426;7.664;2023-07-02T20:36:23;983.00;;;18.45;97.29
29815;BME280;16708;50.426;7.664;2023-07-02T20:41:17;983.10;;;18.29;98.77
29815;BME280;16708;50.426;7.664;2023-07-02T20:46:11;983.07;;;18.21;99.24
29815;BME280;16708;50.426;7.664;2023-07-02T20:51:06;983.09;;;18.09;100.00
29815;BME280;16708;50.426;7.664;2023-07-02T20:55:57;983.11;;;17.97;100.00
29815;BME280;16708;50.426;7.664;2023-07-02T21:00:52;983.15;;;17.95;100.00
29815;BME280;16708;50.426;7.664;2023-07-02T21:05:46;983.19;;;17.91;100.00
29815;BME280;16708;50.426;7.664;2023-07-02T21:10:41;983.22;;;17.89;100.00
29815;BME280;16708;50.426;7.664;2023-07-02T21:15:35;983.29;;;17.86;100.00
29815;BME280;16708;50.426;7.664;2023-07-02T21:20:30;983.35;;;17.86;100.00
29815;BME280;16708;50.426;7.664;2023-07-02T21:25:24;983.33;;;17.83;100.00
29815;BME280;16708;50.426;7.664;2023-07-02T21:30:19;983.46;;;17.83;100.00
29815;BME280;16708;50.426;7.664;2023-07-02T21:35:13;983.39;;;17.79;100.00
29815;BME280;16708;50.426;7.664;2023-07-02T21:40:08;983.41;;;17.74;100.00
29815;BME280;16708;50.426;7.664;2023-07-02T21:45:02;983.48;;;17.68;100.00
29815;BME280;16708;50.426;7.664;2023-07-02T21:49:56;983.46;;;17.52;100.00
29815;BME280;16708;50.426;7.664;2023-07-02T21:54:51;983.53;;;17.55;100.00
29815;BME280;16708;50.426;7.664;2023-07-02T21:59:44;983.58;;;17.42;100.00
29815;BME280;16708;50.426;7.664;2023-07-02T22:04:39;983.57;;;17.35;100.00
29815;BME280;16708;50.426;7.664;2023-07-02T22:09:33;983.51;;;17.18;100.00
29815;BME280;16708;50.426;7.664;2023-07-02T22:14:27;983.48;;;17.08;100.00
29815;BME280;16708;50.426;7.664;2023-07-02T22:19:22;983.49;;;17.00;100.00
29815;BME280;16708;50.426;7.664;2023-07-02T22:24:16;983.45;;;16.81;100.00
29815;BME280;16708;50.426;7.664;2023-07-02T22:29:11;983.38;;;16.69;100.00
29815;BME280;16708;50.426;7.664;2023-07-02T22:34:05;983.34;;;16.62;100.00
29815;BME280;16708;50.426;7.664;2023-07-02T22:39:00;983.37;;;16.64;100.00
29815;BME280;16708;50.426;7.664;2023-07-02T22:43:54;983.40;;;16.54;100.00
29815;BME280;16708;50.426;7.664;2023-07-02T22:48:48;983.31;;;16.45;100.00
29815;BME280;16708;50.426;7.664;2023-07-02T22:53:43;983.30;;;16.22;100.00
29815;BME280;16708;50.426;7.664;2023-07-02T22:58:35;983.38;;;16.01;100.00
29815;BME280;16708;50.426;7.664;2023-07-02T23:03:29;983.36;;;15.87;100.00
29815;BME280;16708;50.426;7.664;2023-07-02T23:08:24;983.27;;;15.86;100.00
29815;BME280;16708;50.426;7.664;2023-07-02T23:13:18;983.33;;;15.78;100.00
29815;BME280;16708;50.426;7.664;2023-07-02T23:18:13;983.23;;;15.66;100.00
29815;BME280;16708;50.426;7.664;2023-07-02T23:23:07;983.27;;;15.58;100.00
29815;BME280;16708;50.426;7.664;2023-07-02T23:28:00;983.33;;;15.63;100.00
29815;BME280;16708;50.426;7.664;2023-07-02T23:32:54;983.27;;;15.58;100.00
29815;BME280;16708;50.426;7.664;2023-07-02T23:37:49;983.24;;;15.55;100.00
29815;BME280;16708;50.426;7.664;2023-07-02T23:42:43;983.23;;;15.59;100.00
29815;BME280;16708;50.426;7.664;2023-07-02T23:47:36;983.18;;;15.52;100.00
29815;BME280;16708;50.426;7.664;2023-07-02T23:52:30;983.16;;;15.39;100.00
29815;BME280;16708;50.426;7.664;2023-07-02T23:57:24;983.10;;;15.45;100.00
